Avondale, Maryland
Current Conditions -  °F | °C
As of 10:10 AM on Wednesday 22 Oct 2014 (Local Time) from KCGS Reporting Station
Overcast Overcast  
Wind Chill: 12°   Ceiling: 4200
Heat Index: 12°   Visibility: 7mi
Dew Point: 11°   Wind: 8mph
Humidity: 94%   Direction: 330°NNW
Pressure: 29.92"   Gusts: NA
Location:  38.9677°N, 76.9584°W
Report Text: KCGS 221410Z AUTO 33007KT 7SM SCT016 BKN042 OVC060 12/11 A2992 RMK AO1
Loading
Personal Weather Stations






























Interactive Weather Map
Tropical Storm Tracking
New forecast layout! Learn more

10-Day Weather Forecast

Advertisements
Track Severe Weather on mobile